Date,TemperatureHighF,TemperatureAvgF,TemperatureLowF,DewpointHighF,DewpointAvgF,DewpointLowF,HumidityHigh,HumidityAvg,HumidityLow,PressureMaxIn,PressureMinIn,WindSpeedMaxMPH,WindSpeedAvgMPH,GustSpeedMaxMPH,PrecipitationSumIn
2013-1-1,14,11,7,5,-1,-4,88,59,47,30.41,30.26,14,3,23,0.00
2013-1-2,16,11,1,3,0,-5,76,61,49,30.55,30.38,11,2,18,0.00
2013-1-3,28,11,-3,1,-5,-11,77,54,18,30.66,30.54,4,0,7,0.00
2013-1-4,37,19,7,13,7,0,81,62,32,30.58,30.28,2,0,6,0.00
2013-1-5,30,22,9,5,0,-6,73,40,25,30.46,30.27,11,2,16,0.00
2013-1-6,44,27,9,8,-4,-16,49,29,8,30.44,30.05,4,0,11,0.00
2013-1-7,41,34,25,5,-5,-14,41,20,9,30.05,29.78,11,2,22,0.00
2013-1-8,32,29,26,17,11,-8,61,49,17,30.27,29.77,17,3,34,0.00
2013-1-9,48,34,24,16,11,4,63,41,19,30.35,30.01,6,1,13,0.00
2013-1-10,44,29,19,17,8,3,64,45,18,30.01,29.50,2,0,8,0.00
2013-1-11,22,15,6,19,3,-7,87,59,34,29.86,29.28,19,5,34,0.00
2013-1-12,10,2,-9,-2,-10,-14,85,60,37,30.28,29.88,13,2,20,0.00
2013-1-13,4,-3,-13,-3,-8,-18,85,80,70,30.51,30.28,7,1,9,0.00
2013-1-14,9,-3,-16,-1,-12,-20,86,66,46,30.61,30.47,7,1,22,0.00
2013-1-15,24,12,0,8,-4,-17,59,49,41,30.51,30.44,14,3,25,0.00
2013-1-16,34,26,18,17,14,6,72,60,50,30.49,30.35,8,2,22,0.00
2013-1-17,40,26,11,15,9,4,81,52,28,30.59,30.35,8,1,15,0.00
2013-1-18,38,34,31,7,3,-1,36,27,22,30.34,30.09,18,4,34,0.00
2013-1-19,39,33,28,5,2,-1,34,27,21,30.28,30.02,21,5,35,0.00
2013-1-20,37,32,23,9,2,-2,54,29,22,30.25,30.08,9,2,46,0.00
2013-1-21,35,31,27,10,4,-4,38,31,20,30.21,30.10,19,5,32,0.00
2013-1-22,42,39,34,-3,-9,-22,20,13,6,30.19,29.98,20,8,43,0.00
2013-1-23,52,39,29,17,0,-24,42,23,5,30.22,30.04,19,2,31,0.00
2013-1-24,45,38,29,27,12,-2,68,38,16,30.10,29.82,24,5,37,0.00
2013-1-25,43,38,35,28,26,23,72,62,51,30.07,29.96,14,4,29,0.00
2013-1-26,45,37,27,30,25,21,94,63,38,29.95,29.62,10,1,25,0.00
2013-1-27,41,32,21,29,24,15,95,72,45,29.76,29.59,11,1,35,0.02
2013-1-28,44,28,18,24,17,12,92,65,28,29.71,29.52,10,1,16,0.00
2013-1-29,18,11,2,14,1,-4,83,64,42,30.15,29.63,11,2,26,0.00
2013-1-30,23,16,4,17,7,-4,83,70,58,30.16,30.01,27,10,39,0.00
2013-1-31,28,25,21,19,16,12,87,69,51,30.24,30.00,26,10,41,0.00
2013-2-1,28,26,23,21,17,12,85,68,55,30.18,30.05,29,9,42,0.00
2013-2-2,36,30,25,17,11,6,70,47,31,30.38,30.16,21,6,44,0.00
2013-2-3,42,34,26,9,0,-13,46,26,10,30.28,29.90,14,2,24,0.00
2013-2-4,36,31,27,12,5,-1,46,34,26,29.98,29.84,13,5,34,0.00
2013-2-5,45,34,28,23,18,12,69,51,39,30.06,29.84,15,4,31,0.00
2013-2-6,39,32,25,25,19,13,85,60,43,30.04,29.78,10,2,17,0.00
2013-2-7,36,25,12,15,4,-8,81,44,16,30.18,30.03,13,2,19,0.00
2013-2-8,39,24,11,16,3,-3,76,44,18,30.14,29.83,6,1,11,0.00
2013-2-9,26,21,15,21,16,8,91,78,54,29.82,29.54,6,1,12,0.00
2013-2-10,20,16,10,14,9,4,88,73,51,30.15,29.62,11,2,25,0.00
2013-2-11,18,9,-3,13,5,-7,89,83,67,30.32,30.15,6,1,8,0.00
2013-2-12,24,16,6,5,0,-8,79,50,32,30.34,30.23,18,3,20,0.00
2013-2-13,27,23,18,14,10,6,64,59,52,30.27,30.04,25,6,37,0.00
2013-2-14,28,19,11,16,12,8,91,74,46,30.33,30.03,12,3,26,0.00
2013-2-15,23,18,9,13,10,7,91,70,50,30.52,30.32,23,4,45,0.00
2013-2-16,35,29,22,15,11,6,68,48,34,30.43,30.07,25,8,38,0.00
2013-2-17,42,32,20,16,4,-5,72,33,17,30.06,29.57,31,4,31,0.00
2013-2-18,22,17,5,11,4,-4,72,56,34,30.20,29.66,19,3,29,0.00
2013-2-19,37,23,5,9,-1,-18,70,40,9,30.21,29.86,6,1,10,0.00
2013-2-20,32,20,14,16,10,5,91,68,35,29.86,29.65,8,1,11,0.00
2013-2-21,20,15,8,15,11,6,91,87,75,30.02,29.71,8,1,12,0.00
2013-2-22,25,18,14,15,6,0,77,60,47,30.06,29.91,17,3,28,0.00
2013-2-23,34,23,15,19,10,1,89,59,46,29.96,29.71,20,5,40,0.00
2013-2-24,18,15,0,16,12,-3,91,89,86,30.24,29.74,7,1,14,0.00
2013-2-25,29,17,-1,17,8,-4,91,68,46,30.32,30.00,8,1,16,0.10
2013-2-26,25,19,9,18,14,7,91,81,53,30.23,29.86,9,1,19,0.00
2013-2-27,21,14,0,7,2,-6,91,62,40,30.48,30.24,9,1,24,0.00
2013-2-28,27,20,13,13,6,0,73,57,41,30.50,30.33,16,5,35,0.00
2013-3-1,32,27,19,22,16,10,71,64,54,30.45,30.36,13,4,34,0.01
2013-3-2,41,35,30,23,21,16,69,56,43,30.38,30.06,17,4,28,0.02
2013-3-3,44,38,27,28,20,15,77,51,37,30.05,29.53,38,6,44,0.00
2013-3-4,35,23,15,28,16,-2,93,75,46,30.24,29.58,12,3,33,0.01
2013-3-5,41,26,14,8,-1,-10,61,34,13,30.40,30.22,11,2,22,0.01
2013-3-6,48,36,20,17,10,1,58,35,18,30.22,29.81,7,1,13,0.01
2013-3-7,50,38,24,21,15,7,72,41,18,29.88,29.76,11,2,21,0.00
2013-3-8,45,30,21,26,19,11,95,66,36,29.90,29.65,6,1,9,0.00
2013-3-9,27,23,8,25,21,5,95,92,87,30.14,29.59,8,1,12,0.00
2013-3-10,34,22,2,21,13,0,94,69,50,30.29,30.14,10,2,26,0.22
2013-3-11,34,29,22,24,18,11,92,64,50,30.17,29.90,25,9,43,0.01
2013-3-12,38,28,17,24,20,15,92,74,50,30.29,30.11,22,2,34,0.01
2013-3-13,46,40,35,23,21,17,61,47,32,30.27,30.14,16,4,45,0.04
2013-3-14,53,43,36,24,19,11,58,40,20,30.21,30.06,16,2,26,0.00
2013-3-15,55,45,32,30,22,20,67,43,25,30.07,29.77,18,2,38,0.00
2013-3-16,44,37,29,30,26,21,84,66,48,29.79,29.66,8,2,24,0.00
2013-3-17,39,30,19,28,20,12,91,70,36,29.81,29.49,17,3,39,0.03
2013-3-18,30,23,17,17,11,4,81,61,47,30.08,29.82,16,4,23,0.00
2013-3-19,34,27,14,12,0,-14,66,34,13,30.36,30.04,21,5,43,0.00
2013-3-20,45,30,10,24,11,-6,66,46,23,30.33,29.74,21,6,36,0.00
2013-3-21,42,32,23,28,19,8,84,61,40,29.79,29.41,32,6,37,0.00
2013-3-22,33,23,16,21,12,3,92,65,30,29.93,29.71,14,2,17,0.00
2013-3-23,16,10,3,14,6,0,90,87,82,30.38,29.90,7,2,11,0.00
2013-3-24,16,8,-5,9,3,-8,90,79,56,30.49,30.37,11,1,17,0.00
2013-3-25,26,15,5,14,5,1,88,66,34,30.48,30.39,6,1,15,0.00
2013-3-26,42,29,5,24,16,2,86,61,35,30.41,30.06,15,2,31,0.19
2013-3-27,45,33,22,28,23,19,94,70,36,30.10,29.99,14,1,26,0.01
2013-3-28,51,35,22,29,22,18,88,65,27,30.16,30.07,8,1,15,0.00
2013-3-29,49,38,26,30,26,22,87,65,39,30.14,30.01,15,3,26,0.00
2013-3-30,48,38,28,31,26,21,95,63,35,30.12,29.94,18,4,36,0.00
2013-3-31,51,39,24,29,19,10,95,51,19,30.10,29.95,26,2,34,0.00
2013-4-1,42,32,20,31,25,17,96,77,52,30.07,29.93,7,1,11,0.00
2013-4-2,35,30,29,32,29,28,96,95,85,30.12,30.00,4,0,6,0.02
2013-4-3,50,36,22,36,27,20,97,74,40,30.16,30.07,7,1,15,0.45
2013-4-4,53,43,34,27,24,17,71,49,24,30.12,29.91,11,2,22,0.00
2013-4-5,56,41,31,32,24,19,92,55,26,29.91,29.55,17,2,32,0.04
2013-4-6,50,39,31,29,23,19,83,54,35,29.83,29.73,22,3,27,0.01
2013-4-7,44,37,30,31,26,20,89,66,41,29.79,29.64,19,4,43,0.01
2013-4-8,53,36,24,31,25,20,94,69,29,29.68,29.37,10,2,22,0.01
2013-4-9,22,10,3,20,7,-1,93,87,82,30.31,29.61,6,2,9,0.00
2013-4-10,22,12,-5,17,7,-8,91,81,60,30.41,30.15,17,2,25,0.00
2013-4-11,38,30,21,30,23,12,93,75,57,30.14,29.88,13,3,32,0.13
2013-4-12,43,33,25,29,24,12,92,73,29,29.93,29.81,17,3,39,0.02
2013-4-13,51,38,22,32,19,12,94,51,27,29.90,29.39,30,4,41,0.00
2013-4-14,33,25,20,31,17,11,94,75,50,29.80,29.37,7,1,19,0.00
2013-4-15,25,21,16,23,18,14,92,88,71,30.05,29.77,4,0,10,0.00
2013-4-16,24,20,15,22,18,12,94,91,83,30.07,29.93,0,0,1,0.00
2013-4-17,22,16,5,19,14,2,94,91,86,30.26,29.97,0,0,0,0.00
2013-4-18,22,13,-1,10,4,-4,90,70,51,30.45,30.23,0,0,0,0.00
2013-4-19,37,28,18,24,15,9,82,59,48,30.39,30.04,15,4,29,0.01
2013-4-20,43,35,28,27,24,21,87,67,43,30.05,29.89,10,2,17,0.15
2013-4-21,46,38,31,27,21,16,82,52,34,30.03,29.90,19,3,23,0.00
2013-4-22,37,25,13,32,22,11,94,86,61,30.23,29.83,7,2,13,0.03
2013-4-23,23,16,10,18,12,8,90,85,74,30.41,30.20,0,0,0,0.00
2013-4-24,37,26,10,17,12,8,93,59,31,30.41,30.29,28,3,32,0.07
2013-4-25,52,37,20,24,14,5,75,43,19,30.29,29.92,10,2,21,0.01
2013-4-26,49,38,25,25,18,13,76,51,26,30.25,30.03,10,2,12,0.00
2013-4-27,54,42,26,23,19,14,77,44,21,30.24,30.03,14,2,23,0.00
2013-4-28,60,49,35,30,23,16,66,38,26,30.03,29.72,13,2,31,0.00
2013-4-29,63,50,32,33,26,19,87,43,20,29.80,29.45,13,2,26,0.00
2013-4-30,53,42,30,37,30,20,95,66,29,29.78,29.43,9,2,12,0.05
2013-5-1,30,22,12,29,20,10,95,91,88,30.67,29.79,3,0,5,0.00
2013-5-2,30,20,4,25,16,2,91,81,61,30.91,30.62,0,0,0,0.04
2013-5-3,48,37,25,31,23,12,88,58,25,30.62,30.09,8,1,12,0.66
2013-5-4,42,34,22,31,26,17,90,74,39,30.21,30.05,9,2,14,0.00
2013-5-5,45,35,24,33,27,22,95,76,51,30.21,30.06,7,1,9,0.01
2013-5-6,52,40,29,37,32,28,97,74,43,30.09,29.88,7,1,11,0.01
2013-5-7,56,44,31,38,31,25,92,66,32,29.89,29.77,11,3,21,0.00
2013-5-8,42,34,28,39,32,26,97,92,82,30.12,29.83,5,0,12,0.24
2013-5-9,44,35,30,40,34,29,97,94,78,30.21,30.09,3,0,13,1.14
2013-5-10,48,37,27,41,33,26,97,87,54,30.36,30.18,4,0,13,0.60
2013-5-11,56,41,29,38,32,26,97,74,37,30.41,30.19,11,1,15,0.02
2013-5-12,64,51,34,34,31,27,91,50,28,30.20,30.00,13,2,24,0.00
2013-5-13,70,59,41,37,33,29,74,41,22,30.01,29.82,12,2,16,0.00
2013-5-14,70,57,38,39,34,29,82,46,23,29.83,29.71,9,1,23,0.00
2013-5-15,66,52,39,42,37,32,93,61,31,29.74,29.67,9,2,14,0.02
2013-5-16,66,54,41,39,35,28,82,52,24,29.71,29.62,16,2,22,0.00
2013-5-17,70,55,34,35,24,8,83,39,9,29.72,29.58,10,2,19,0.00
2013-5-18,59,48,36,35,28,22,81,48,25,29.67,29.56,7,2,21,0.00
2013-5-19,52,44,39,31,29,26,69,56,39,29.72,29.60,14,4,29,0.00
2013-5-20,50,43,36,38,32,26,92,67,50,29.91,29.68,13,2,19,0.03
2013-5-21,55,43,32,31,27,20,83,54,31,29.92,29.80,16,4,24,0.00
2013-5-22,60,47,30,42,32,25,96,63,27,29.92,29.77,13,2,16,0.21
2013-5-23,54,47,39,47,43,38,97,88,75,29.92,29.80,7,2,11,0.00
2013-5-24,72,52,33,41,30,11,97,55,10,29.90,29.78,13,1,15,0.00
2013-5-25,72,55,33,38,22,6,82,39,8,29.84,29.70,8,2,17,0.00
2013-5-26,72,54,38,36,27,14,65,40,11,29.74,29.65,11,1,18,0.00
2013-5-27,67,53,38,33,23,16,66,35,15,29.70,29.55,13,2,22,0.00
2013-5-28,65,51,33,43,30,23,75,49,21,29.62,29.43,9,1,11,0.00
2013-5-29,51,43,36,38,33,28,92,68,45,29.58,29.36,19,3,25,0.16
2013-5-30,47,42,37,35,29,25,80,61,46,29.78,29.45,22,6,49,0.08
2013-5-31,53,46,38,25,19,13,55,37,21,29.89,29.64,26,7,57,0.01
2013-6-1,55,46,36,37,30,19,86,56,35,30.07,29.90,11,2,16,0.00
2013-6-2,70,52,28,39,30,21,95,52,16,30.07,29.70,12,2,21,0.00
2013-6-3,73,57,38,38,28,22,65,38,15,29.71,29.54,13,2,31,0.00
2013-6-4,60,48,33,49,38,22,95,70,45,29.98,29.68,10,2,12,0.15
2013-6-5,51,43,36,44,40,35,97,91,66,30.03,29.93,7,1,10,0.04
2013-6-6,62,50,32,42,35,31,97,63,35,30.04,29.92,10,2,12,0.00
2013-6-7,69,51,35,49,38,32,94,65,26,29.98,29.65,12,1,18,0.00
2013-6-8,66,55,41,48,41,35,89,61,36,29.80,29.54,12,2,19,0.01
2013-6-9,76,58,36,40,35,31,95,49,19,29.88,29.76,8,2,14,0.00
2013-6-10,81,63,45,47,35,26,67,42,13,29.77,29.60,6,1,17,0.00
2013-6-11,80,64,45,42,26,10,62,30,7,29.65,29.53,11,2,26,0.00
2013-6-12,74,63,42,45,31,19,55,32,19,29.79,29.61,11,2,25,0.00
2013-6-13,80,61,40,49,38,27,79,50,15,29.79,29.61,13,1,21,0.00
2013-6-14,76,58,41,45,36,27,80,49,18,29.74,29.63,9,1,14,0.00
2013-6-15,66,53,35,48,43,33,94,69,50,29.90,29.72,9,2,11,0.00
2013-6-16,66,53,38,44,37,33,90,58,31,29.98,29.87,6,1,14,0.00
2013-6-17,68,54,38,48,40,32,88,61,31,29.96,29.85,11,2,13,0.00
2013-6-18,69,55,38,50,43,36,95,67,35,29.92,29.66,7,1,12,0.00
2013-6-19,79,60,36,44,30,13,96,44,9,29.76,29.49,7,1,19,0.00
2013-6-20,71,57,38,39,28,21,61,36,19,29.71,29.56,9,1,13,0.00
2013-6-21,77,59,36,40,29,19,75,39,13,29.71,29.57,10,1,15,0.00
2013-6-22,69,55,36,47,34,25,82,48,21,29.72,29.54,10,1,11,0.00
2013-6-23,69,55,36,47,35,24,67,49,28,29.79,29.65,9,1,24,0.00
2013-6-24,74,59,36,44,29,20,88,40,15,29.73,29.56,7,1,15,0.00
2013-6-25,74,60,41,38,32,24,58,35,24,29.80,29.60,11,2,20,0.00
2013-6-26,81,64,41,46,36,32,74,40,19,29.86,29.77,9,1,17,0.00
2013-6-27,81,66,47,42,37,30,63,38,16,29.96,29.84,8,2,17,0.00
2013-6-28,82,64,45,55,45,31,96,57,16,29.96,29.82,13,1,19,0.20
2013-6-29,71,57,44,58,50,43,98,81,46,29.96,29.86,4,0,14,0.12
2013-6-30,69,55,47,56,50,43,96,85,41,30.00,29.87,6,0,14,0.09
2013-7-1,66,53,39,55,48,39,98,83,47,30.09,30.00,9,1,12,0.14
2013-7-2,66,54,39,56,46,38,98,79,40,30.07,29.93,8,1,14,0.18
2013-7-3,72,55,38,53,45,37,98,75,38,29.95,29.73,7,1,10,0.31
2013-7-4,74,57,43,55,47,41,96,75,34,29.81,29.72,10,1,12,0.05
2013-7-5,72,60,45,55,49,43,97,70,41,29.73,29.59,6,1,16,0.21
2013-7-6,74,60,48,53,48,45,98,69,37,29.73,29.64,12,1,18,0.07
2013-7-7,74,63,49,51,48,43,87,60,35,29.78,29.69,6,1,12,0.01
2013-7-8,76,63,49,51,46,41,89,56,28,29.84,29.73,10,1,19,0.04
2013-7-9,79,64,48,51,41,33,79,48,19,29.92,29.83,6,1,19,0.00
2013-7-10,75,61,43,53,46,39,87,61,33,29.93,29.76,12,1,15,0.00
2013-7-11,80,65,46,54,46,39,90,56,23,29.85,29.57,7,1,15,0.00
2013-7-12,76,61,53,61,51,45,97,72,38,29.77,29.57,7,0,14,1.15
2013-7-13,74,58,51,61,53,50,98,87,45,29.94,29.78,3,0,10,0.73
2013-7-14,67,56,47,58,53,47,98,90,61,29.98,29.88,8,0,12,0.51
2013-7-15,66,56,49,59,53,48,98,91,76,29.96,29.84,9,1,13,0.08
2013-7-16,67,56,42,52,47,41,98,75,50,29.98,29.88,8,2,11,0.00
2013-7-17,74,59,43,55,50,42,97,74,47,29.99,29.87,7,1,11,0.00
2013-7-18,76,61,52,57,51,47,98,74,40,29.89,29.75,10,1,13,0.33
2013-7-19,68,59,50,56,52,45,98,79,45,29.91,29.82,10,1,12,0.01
2013-7-20,76,59,42,55,47,40,94,69,35,29.84,29.69,6,1,12,0.00
2013-7-21,78,62,43,52,40,28,95,52,17,29.72,29.64,8,1,17,0.00
2013-7-22,80,64,47,51,36,17,69,43,10,29.75,29.68,9,1,19,0.00
2013-7-23,80,62,46,54,39,19,91,49,11,29.86,29.73,9,1,12,0.00
2013-7-24,69,57,48,60,52,47,96,84,59,29.92,29.75,7,1,10,0.18
2013-7-25,62,54,48,55,51,47,97,88,68,30.06,29.80,5,0,12,0.37
2013-7-26,69,56,42,55,46,41,98,73,39,30.09,29.95,10,1,11,0.01
2013-7-27,74,57,42,55,48,40,95,75,37,29.95,29.74,8,1,10,0.07
2013-7-28,64,55,48,56,52,48,98,91,63,29.80,29.65,4,0,11,0.08
2013-7-29,67,57,46,51,48,45,97,74,49,29.95,29.72,6,0,12,0.01
2013-7-30,72,59,44,50,45,42,96,63,37,30.02,29.93,8,1,20,0.00
2013-7-31,76,61,44,51,45,39,89,61,29,30.07,29.90,7,1,12,0.00
2013-8-1,75,62,44,52,46,41,95,60,29,29.96,29.72,4,0,10,0.00
2013-8-2,76,66,53,49,45,39,77,49,27,29.72,29.64,11,2,18,0.00
2013-8-3,76,60,48,58,48,43,96,70,35,29.97,29.72,9,1,14,0.15
2013-8-4,76,61,46,52,46,38,98,63,28,29.93,29.83,8,0,16,0.01
2013-8-5,74,59,49,53,46,42,92,65,37,29.82,29.74,5,1,12,0.09
2013-8-6,75,62,49,48,43,37,77,53,25,29.79,29.71,12,1,12,0.00
2013-8-7,65,54,43,50,44,38,90,71,43,29.82,29.76,5,0,9,0.00
2013-8-8,63,51,39,53,45,36,96,82,59,30.03,29.82,9,1,10,0.11
2013-8-9,63,49,40,52,45,39,98,89,53,30.09,29.98,6,0,12,0.39
2013-8-10,73,56,38,51,42,30,98,66,20,30.11,29.95,14,1,15,0.01
2013-8-11,67,55,46,49,44,40,92,68,39,29.99,29.90,7,1,12,0.00
2013-8-12,66,53,40,53,45,39,96,76,47,30.08,29.94,7,1,12,1.08
2013-8-13,60,51,41,53,47,40,98,88,64,30.08,29.96,5,0,7,0.26
2013-8-14,69,53,38,49,42,35,98,70,31,30.09,29.92,7,1,29,0.01
2013-8-15,73,57,39,47,39,33,90,58,24,30.01,29.89,6,0,16,0.00
2013-8-16,76,58,39,49,39,32,88,57,20,30.01,29.92,5,1,13,0.00
2013-8-17,79,61,43,48,39,30,83,51,17,29.98,29.79,5,0,15,0.00
2013-8-18,79,63,48,51,43,37,79,51,26,29.86,29.76,6,0,15,0.01
2013-8-19,77,63,47,50,43,37,80,51,26,29.85,29.76,6,1,11,0.00
2013-8-20,80,64,46,52,41,35,77,48,20,29.80,29.71,10,0,13,0.00
2013-8-21,76,62,49,52,46,41,86,59,32,29.85,29.74,7,0,11,0.03
2013-8-22,70,55,45,57,50,43,97,83,51,29.98,29.85,4,0,10,0.27
2013-8-23,73,56,47,60,52,46,98,89,40,30.00,29.79,2,0,7,0.44
2013-8-24,70,56,43,56,50,43,98,81,46,29.92,29.82,6,0,10,0.08
2013-8-25,72,57,45,59,50,44,98,80,41,29.94,29.87,8,0,10,0.07
2013-8-26,74,60,48,59,52,47,98,79,44,29.93,29.84,7,1,15,0.57
2013-8-27,74,60,47,60,52,46,98,78,49,29.91,29.80,8,1,12,0.01
2013-8-28,76,59,47,58,51,46,96,78,41,29.91,29.79,11,0,11,0.07
2013-8-29,76,61,46,57,48,44,92,67,35,29.99,29.89,5,1,11,0.00
2013-8-30,76,60,50,58,50,45,96,71,34,29.96,29.83,4,0,9,0.12
2013-8-31,74,59,47,58,50,44,96,74,35,29.90,29.79,4,0,12,0.05
2013-9-1,64,55,47,58,51,45,97,88,71,29.95,29.88,4,0,7,0.01
2013-9-2,76,60,44,56,49,42,94,72,40,29.95,29.80,6,0,10,0.01
2013-9-3,78,65,49,53,49,43,90,60,30,29.85,29.77,6,1,11,0.00
2013-9-4,77,61,50,56,49,45,87,68,35,29.95,29.82,4,0,10,0.00
2013-9-5,78,60,47,56,48,43,88,69,31,29.97,29.88,3,0,8,0.00
2013-9-6,78,62,49,55,48,43,88,65,31,29.92,29.79,6,0,11,0.07
2013-9-7,76,60,45,52,46,42,94,66,31,29.89,29.81,7,1,12,0.00
2013-9-8,72,56,43,59,48,41,95,78,38,29.82,29.65,5,0,8,0.20
2013-9-9,66,56,46,56,50,44,96,81,56,29.79,29.64,6,0,8,0.83
2013-9-10,56,52,50,54,51,50,98,97,93,29.98,29.76,3,0,5,0.62
2013-9-11,55,52,51,53,52,50,98,98,95,30.01,29.95,4,0,7,2.40
2013-9-12,56,52,50,54,51,49,99,98,93,30.07,29.97,6,0,6,2.01
2013-9-13,64,55,44,56,52,44,98,91,72,29.96,29.68,4,0,9,0.27
2013-9-14,64,50,42,54,48,42,99,93,56,29.89,29.73,1,0,6,0.22
2013-9-15,50,47,44,49,47,43,99,97,91,30.10,29.88,5,0,8,1.50
2013-9-16,63,50,41,54,46,40,99,90,63,30.08,29.89,4,0,6,0.00
2013-9-17,68,55,43,49,44,37,98,71,34,29.95,29.66,6,0,13,0.01
2013-9-18,67,51,40,49,44,39,97,80,41,29.79,29.61,5,0,13,0.22
2013-9-19,53,46,38,44,41,37,97,85,72,30.05,29.75,7,1,11,0.00
2013-9-20,64,44,29,44,35,22,98,77,20,30.09,29.95,7,1,9,0.00
2013-9-21,68,53,34,48,38,32,93,62,33,30.00,29.68,11,1,17,0.00
2013-9-22,63,48,38,49,42,35,96,79,47,29.69,29.43,4,0,9,0.15
2013-9-23,47,42,39,39,34,29,96,72,57,30.01,29.31,20,4,49,0.19
2013-9-24,62,51,39,38,29,17,72,46,21,30.03,29.70,7,1,17,0.00
2013-9-25,70,55,40,33,26,17,71,36,15,29.70,29.28,7,1,13,0.00
2013-9-26,56,45,31,43,37,27,96,74,39,29.64,29.34,9,1,9,0.00
2013-9-27,42,37,31,41,35,22,98,92,67,29.93,29.62,9,1,19,0.26
2013-9-28,49,39,31,33,24,15,73,55,39,30.17,29.87,15,3,33,0.00
2013-9-29,59,50,36,27,22,17,69,36,23,30.11,29.68,12,2,23,0.00
2013-9-30,67,57,48,35,28,21,47,33,27,29.77,29.59,15,2,30,0.00
2013-10-1,62,47,33,44,35,25,93,64,35,29.85,29.69,6,1,10,0.00
2013-10-2,64,47,33,39,32,22,93,62,20,29.90,29.77,10,1,12,0.00
2013-10-3,59,43,31,41,35,28,96,78,31,29.78,29.55,6,1,10,0.11
2013-10-4,40,30,24,39,26,15,96,84,69,30.14,29.58,8,1,21,0.29
2013-10-5,38,31,23,20,16,6,74,56,28,30.36,30.11,13,4,24,0.00
2013-10-6,54,44,35,33,25,12,63,48,37,30.34,30.13,6,1,17,0.01
2013-10-7,64,51,40,31,22,9,59,34,13,30.12,29.78,5,0,16,0.00
2013-10-8,65,52,37,33,24,15,74,37,19,29.77,29.53,10,2,13,0.00
2013-10-9,54,43,32,38,32,26,92,69,41,29.84,29.62,11,1,11,0.00
2013-10-10,53,40,31,41,32,24,95,76,49,29.83,29.37,18,2,34,0.00
2013-10-11,42,38,33,32,28,25,92,69,57,29.96,29.38,22,6,46,0.00
2013-10-12,46,35,26,36,29,22,95,81,39,30.13,29.97,9,1,13,0.02
2013-10-13,52,37,24,40,31,23,96,81,43,30.16,29.88,9,1,10,0.00
2013-10-14,41,35,29,33,28,24,96,78,56,30.09,29.69,11,2,29,0.01
2013-10-15,32,27,24,27,24,22,94,90,75,30.25,30.08,5,1,8,0.00
2013-10-16,39,32,23,24,20,17,95,66,45,30.23,30.08,13,3,27,0.01
2013-10-17,42,34,28,28,22,14,94,63,34,30.09,29.94,11,2,23,0.00
2013-10-18,33,28,22,27,20,14,94,73,50,30.20,29.96,14,2,29,0.08
2013-10-19,44,38,30,24,19,16,57,47,38,30.21,29.87,15,4,28,0.06
2013-10-20,42,35,23,31,24,19,95,67,42,30.05,29.82,9,1,23,0.00
2013-10-21,41,32,19,25,22,18,94,70,48,30.29,30.05,9,1,25,0.03
2013-10-22,51,43,36,29,25,22,64,50,37,30.25,30.01,12,3,21,0.00
2013-10-23,54,43,28,32,26,22,87,55,31,30.11,29.97,9,1,21,0.00
2013-10-24,55,38,25,29,25,18,91,64,24,30.21,30.11,6,1,12,0.00
2013-10-25,56,41,28,36,26,19,82,60,26,30.21,30.05,10,1,12,0.00
2013-10-26,50,36,25,32,26,22,90,69,42,30.28,30.17,15,1,19,0.03
2013-10-27,52,44,32,26,23,20,69,45,31,30.16,29.77,13,2,23,0.00
2013-10-28,31,28,25,29,25,21,96,88,70,30.00,29.78,6,1,7,0.00
2013-10-29,48,30,20,33,25,18,96,84,34,30.05,29.85,9,1,17,0.00
2013-10-30,37,31,28,30,22,17,96,71,51,29.86,29.76,10,2,23,0.11
2013-10-31,34,30,26,24,19,14,79,64,52,29.99,29.79,16,6,35,0.00
2013-11-1,35,33,30,26,21,17,81,63,49,30.23,29.95,18,3,29,0.00
2013-11-2,50,42,32,19,11,-4,60,31,11,30.22,29.65,14,3,26,0.02
2013-11-3,50,42,25,28,14,-6,85,38,10,29.64,29.41,7,2,21,0.00
2013-11-4,30,26,18,21,14,6,85,63,41,29.97,29.61,13,2,25,0.00
2013-11-5,25,21,18,17,8,3,88,60,40,30.29,29.93,17,3,27,0.00
2013-11-6,32,28,19,18,13,1,61,54,44,30.48,30.21,23,8,40,0.00
2013-11-7,46,38,30,21,19,17,64,48,33,30.48,29.97,9,1,21,0.00
2013-11-8,49,43,32,19,16,9,57,35,25,29.96,29.57,19,5,50,0.00
2013-11-9,51,40,30,21,18,16,62,43,28,30.16,29.95,13,2,20,0.00
2013-11-10,51,42,29,22,18,15,71,41,26,30.18,30.09,8,1,25,0.00
2013-11-11,51,38,24,27,21,16,95,57,27,30.51,30.14,7,1,20,0.00
2013-11-12,47,33,21,28,21,9,95,67,27,30.60,30.45,5,0,8,0.00
2013-11-13,50,43,32,18,13,5,44,30,20,30.45,29.93,18,2,20,0.00
2013-11-14,43,37,29,27,18,9,73,47,30,29.94,29.70,12,1,16,0.00
2013-11-15,47,35,28,28,17,6,84,50,23,29.69,29.42,8,1,21,0.00
2013-11-16,39,32,27,27,20,14,93,64,42,29.52,29.22,18,6,39,0.00
2013-11-17,35,29,22,22,19,16,92,67,49,30.16,29.48,34,7,40,0.00
2013-11-18,47,35,25,21,14,7,62,45,21,30.24,30.03,20,3,28,0.00
2013-11-19,44,37,25,29,20,8,79,53,32,30.03,29.74,20,1,33,0.00
2013-11-20,41,34,26,29,26,22,91,71,51,29.90,29.73,4,0,13,0.03
2013-11-21,26,12,2,24,9,-1,93,88,81,30.75,29.89,5,1,7,0.00
2013-11-22,32,22,13,27,16,10,91,79,42,30.83,30.69,4,0,5,0.00
2013-11-23,28,21,13,21,18,11,93,85,57,30.68,30.40,4,0,9,0.00
2013-11-24,41,30,21,34,27,19,96,90,69,30.39,30.02,2,0,3,0.08
2013-11-25,33,25,15,27,19,13,92,78,61,30.41,30.05,3,0,7,0.00
2013-11-26,36,26,14,20,16,12,93,68,46,30.57,30.38,10,1,20,0.00
2013-11-27,44,34,24,21,16,11,72,48,28,30.37,30.10,6,1,17,0.02
2013-11-28,43,29,19,24,18,14,83,64,36,30.24,30.15,2,0,5,0.00
2013-11-29,42,36,27,20,17,14,68,47,36,30.21,30.09,13,3,28,0.00
2013-11-30,38,34,30,18,13,8,56,43,29,30.17,30.11,9,2,24,0.00
2013-12-1,36,33,29,26,19,13,76,56,46,30.16,29.74,35,8,47,0.00
2013-12-2,39,35,31,27,24,19,85,64,47,29.83,29.55,25,12,39,0.00
2013-12-3,33,24,3,30,20,0,92,86,76,29.62,29.39,6,1,14,0.00
2013-12-4,3,-1,-8,-1,-5,-12,88,83,76,30.34,29.63,0,0,5,0.00
2013-12-5,10,-3,-17,5,-7,-21,87,82,74,30.44,30.23,0,0,0,0.00
2013-12-6,10,-4,-19,3,-10,-24,87,79,59,30.66,30.44,0,0,0,0.00
2013-12-7,20,9,0,10,4,-5,92,80,48,30.57,29.91,0,0,0,0.00
2013-12-8,13,9,2,9,2,-6,90,74,56,30.18,29.83,6,1,17,0.00
2013-12-9,11,3,-2,-1,-9,-13,79,59,47,30.58,30.17,27,7,47,0.00
2013-12-10,26,21,11,13,7,-1,70,55,48,30.44,30.23,28,12,54,0.00
2013-12-11,34,25,11,9,3,-10,85,41,15,30.43,30.28,14,4,32,0.00
2013-12-12,43,37,33,12,2,-10,33,22,15,30.40,29.86,14,4,23,0.00
2013-12-13,35,30,22,14,10,6,61,43,31,30.11,29.72,16,4,33,0.00
2013-12-14,27,23,19,13,9,7,64,57,50,30.41,30.12,17,5,30,0.00
2013-12-15,37,32,26,17,15,11,64,51,35,30.36,30.11,23,8,38,0.00
2013-12-16,42,38,36,20,13,5,51,37,25,30.18,30.02,32,14,44,0.00
2013-12-17,42,37,30,14,12,9,49,36,29,30.29,30.09,7,2,19,0.00
2013-12-18,47,41,31,16,10,7,49,29,19,30.08,29.64,31,3,33,0.00
2013-12-19,45,31,16,21,17,14,94,61,29,29.65,29.45,7,1,22,0.00
2013-12-20,31,24,11,24,16,7,95,74,50,29.74,29.64,8,1,19,0.00
2013-12-21,27,21,13,18,10,5,91,66,44,29.96,29.54,9,2,20,0.00
2013-12-22,22,18,14,15,9,5,86,68,56,30.30,29.96,21,4,37,0.00
2013-12-23,30,25,12,21,16,9,89,69,59,30.35,30.19,22,7,38,0.00
2013-12-24,34,26,17,26,17,4,88,68,52,30.30,30.06,19,6,41,0.00
2013-12-25,29,23,18,6,3,0,56,43,35,30.51,30.27,19,5,33,0.00
2013-12-26,35,30,26,16,7,-4,55,39,24,30.48,30.32,14,4,25,0.00
2013-12-27,42,35,27,22,19,15,77,54,40,30.33,30.07,6,1,13,0.00
2013-12-28,40,32,14,22,18,12,90,61,43,30.06,29.83,9,2,19,0.00
2013-12-29,25,19,9,15,9,1,92,68,35,30.24,30.06,27,4,42,0.00
2013-12-30,31,26,21,15,12,7,76,57,44,30.32,30.10,21,6,43,0.00
2013-12-31,36,32,29,22,18,12,69,56,44,30.19,29.86,24,7,45,0.00
2014-1-1,31,25,20,25,16,10,90,71,58,30.27,29.88,13,3,35,0.00
2014-1-2,37,31,22,17,8,-4,63,39,20,30.36,29.98,23,4,34,0.00